Kendall, Washington
Current Conditions -  °F | °C
As of 12:00 AM on Monday 24 Nov 2014 (Local Time) from CYXX Reporting Station
Broken Clouds Broken Clouds  
Wind Chill: 39°   Ceiling: 24000
Heat Index: 39°   Visibility: 15mi
Dew Point: 37°   Wind: 0mph
Humidity: 93%   Direction: NA
Pressure: 30.34"   Gusts: NA
Location:  48.8512°N, 121.903°W
Report Text: CYXX 240800Z 00000KT 15SM FEW075 FEW180 BKN240 04/03 A3034 RMK AC1AC1CI5 AC TR SLP275
Loading
Personal Weather Stations






























Interactive Weather Map New forecast layout! Learn more

10-Day Weather Forecast

Advertisements
Track Severe Weather on mobile